sensor_id;sensor_type;location;lat;lon;timestamp;temperature;humidity
8103;DHT22;4094;49.948;11.574;2022-07-09T00:00:48;20.20;54.10
8103;DHT22;4094;49.948;11.574;2022-07-09T00:03:17;20.20;54.00
8103;DHT22;4094;49.948;11.574;2022-07-09T00:05:46;20.10;54.10
8103;DHT22;4094;49.948;11.574;2022-07-09T00:08:17;20.10;54.10
8103;DHT22;4094;49.948;11.574;2022-07-09T00:10:46;20.10;54.30
8103;DHT22;4094;49.948;11.574;2022-07-09T00:13:15;20.00;54.30
8103;DHT22;4094;49.948;11.574;2022-07-09T00:15:44;20.00;54.40
8103;DHT22;4094;49.948;11.574;2022-07-09T00:18:14;19.90;54.50
8103;DHT22;4094;49.948;11.574;2022-07-09T00:20:43;19.90;54.60
8103;DHT22;4094;49.948;11.574;2022-07-09T00:23:12;19.80;54.60
8103;DHT22;4094;49.948;11.574;2022-07-09T00:25:42;19.80;54.80
8103;DHT22;4094;49.948;11.574;2022-07-09T00:28:12;19.70;54.80
8103;DHT22;4094;49.948;11.574;2022-07-09T00:30:40;19.70;55.10
8103;DHT22;4094;49.948;11.574;2022-07-09T00:33:10;19.60;55.20
8103;DHT22;4094;49.948;11.574;2022-07-09T00:35:39;19.60;55.40
8103;DHT22;4094;49.948;11.574;2022-07-09T00:38:08;19.50;55.40
8103;DHT22;4094;49.948;11.574;2022-07-09T00:40:37;19.50;55.40
8103;DHT22;4094;49.948;11.574;2022-07-09T00:43:16;19.40;55.50
8103;DHT22;4094;49.948;11.574;2022-07-09T00:45:46;19.40;55.70
8103;DHT22;4094;49.948;11.574;2022-07-09T00:48:16;19.40;55.80
8103;DHT22;4094;49.948;11.574;2022-07-09T00:50:47;19.30;55.80
8103;DHT22;4094;49.948;11.574;2022-07-09T00:53:21;19.30;55.90
8103;DHT22;4094;49.948;11.574;2022-07-09T00:55:51;19.30;56.10
8103;DHT22;4094;49.948;11.574;2022-07-09T00:58:22;19.20;56.10
8103;DHT22;4094;49.948;11.574;2022-07-09T01:00:52;19.20;56.30
8103;DHT22;4094;49.948;11.574;2022-07-09T01:03:22;19.20;56.20
8103;DHT22;4094;49.948;11.574;2022-07-09T01:05:52;19.20;56.30
8103;DHT22;4094;49.948;11.574;2022-07-09T01:08:25;19.20;56.30
8103;DHT22;4094;49.948;11.574;2022-07-09T01:10:54;19.20;56.60
8103;DHT22;4094;49.948;11.574;2022-07-09T01:13:25;19.10;56.60
8103;DHT22;4094;49.948;11.574;2022-07-09T01:15:54;19.10;56.60
8103;DHT22;4094;49.948;11.574;2022-07-09T01:18:23;19.10;57.10
8103;DHT22;4094;49.948;11.574;2022-07-09T01:20:54;19.10;56.60
8103;DHT22;4094;49.948;11.574;2022-07-09T01:23:24;19.10;56.60
8103;DHT22;4094;49.948;11.574;2022-07-09T01:25:55;19.20;56.70
8103;DHT22;4094;49.948;11.574;2022-07-09T01:28:24;19.10;56.70
8103;DHT22;4094;49.948;11.574;2022-07-09T01:30:54;19.10;56.70
8103;DHT22;4094;49.948;11.574;2022-07-09T01:33:23;19.10;56.70
8103;DHT22;4094;49.948;11.574;2022-07-09T01:35:54;19.10;56.80
8103;DHT22;4094;49.948;11.574;2022-07-09T01:38:23;19.00;57.00
8103;DHT22;4094;49.948;11.574;2022-07-09T01:40:52;19.10;57.10
8103;DHT22;4094;49.948;11.574;2022-07-09T01:43:21;19.10;57.10
8103;DHT22;4094;49.948;11.574;2022-07-09T01:45:51;19.00;57.10
8103;DHT22;4094;49.948;11.574;2022-07-09T01:48:20;19.00;56.90
8103;DHT22;4094;49.948;11.574;2022-07-09T01:50:49;19.00;56.70
8103;DHT22;4094;49.948;11.574;2022-07-09T01:53:22;19.00;56.70
8103;DHT22;4094;49.948;11.574;2022-07-09T01:55:52;19.00;56.70
8103;DHT22;4094;49.948;11.574;2022-07-09T01:58:21;19.00;56.60
8103;DHT22;4094;49.948;11.574;2022-07-09T02:00:50;19.00;56.50
8103;DHT22;4094;49.948;11.574;2022-07-09T02:03:19;19.00;56.70
8103;DHT22;4094;49.948;11.574;2022-07-09T02:05:47;19.00;56.70
8103;DHT22;4094;49.948;11.574;2022-07-09T02:08:17;19.00;56.70
8103;DHT22;4094;49.948;11.574;2022-07-09T02:10:47;19.00;56.60
8103;DHT22;4094;49.948;11.574;2022-07-09T02:13:17;19.00;56.70
8103;DHT22;4094;49.948;11.574;2022-07-09T02:15:47;19.00;56.70
8103;DHT22;4094;49.948;11.574;2022-07-09T02:18:16;19.00;56.80
8103;DHT22;4094;49.948;11.574;2022-07-09T02:20:46;19.00;56.90
8103;DHT22;4094;49.948;11.574;2022-07-09T02:23:15;19.00;57.00
8103;DHT22;4094;49.948;11.574;2022-07-09T02:25:44;19.00;57.00
8103;DHT22;4094;49.948;11.574;2022-07-09T02:28:14;19.00;57.00
8103;DHT22;4094;49.948;11.574;2022-07-09T02:30:43;19.00;56.90
8103;DHT22;4094;49.948;11.574;2022-07-09T02:33:13;19.00;57.00
8103;DHT22;4094;49.948;11.574;2022-07-09T02:35:42;19.00;57.00
8103;DHT22;4094;49.948;11.574;2022-07-09T02:38:12;19.00;57.10
8103;DHT22;4094;49.948;11.574;2022-07-09T02:40:42;19.00;57.00
8103;DHT22;4094;49.948;11.574;2022-07-09T02:43:11;19.00;57.10
8103;DHT22;4094;49.948;11.574;2022-07-09T02:45:41;19.00;57.10
8103;DHT22;4094;49.948;11.574;2022-07-09T02:48:10;19.00;57.20
8103;DHT22;4094;49.948;11.574;2022-07-09T02:50:39;19.00;57.20
8103;DHT22;4094;49.948;11.574;2022-07-09T02:53:09;18.90;57.20
8103;DHT22;4094;49.948;11.574;2022-07-09T02:55:38;18.90;57.20
8103;DHT22;4094;49.948;11.574;2022-07-09T02:58:07;18.90;57.20
8103;DHT22;4094;49.948;11.574;2022-07-09T03:00:36;18.90;57.20
8103;DHT22;4094;49.948;11.574;2022-07-09T03:03:09;18.90;57.30
8103;DHT22;4094;49.948;11.574;2022-07-09T03:05:38;18.90;57.20
8103;DHT22;4094;49.948;11.574;2022-07-09T03:08:07;18.90;57.30
8103;DHT22;4094;49.948;11.574;2022-07-09T03:10:36;18.90;57.40
8103;DHT22;4094;49.948;11.574;2022-07-09T03:13:06;18.90;57.90
8103;DHT22;4094;49.948;11.574;2022-07-09T03:15:39;18.80;57.30
8103;DHT22;4094;49.948;11.574;2022-07-09T03:18:10;18.80;57.30
8103;DHT22;4094;49.948;11.574;2022-07-09T03:20:39;18.90;57.30
8103;DHT22;4094;49.948;11.574;2022-07-09T03:23:08;18.80;57.30
8103;DHT22;4094;49.948;11.574;2022-07-09T03:25:37;18.80;57.40
8103;DHT22;4094;49.948;11.574;2022-07-09T03:28:06;18.80;57.60
8103;DHT22;4094;49.948;11.574;2022-07-09T03:30:35;18.80;57.70
8103;DHT22;4094;49.948;11.574;2022-07-09T03:33:04;18.80;57.70
8103;DHT22;4094;49.948;11.574;2022-07-09T03:35:35;18.80;57.80
8103;DHT22;4094;49.948;11.574;2022-07-09T03:38:04;18.80;57.90
8103;DHT22;4094;49.948;11.574;2022-07-09T03:40:33;18.80;57.70
8103;DHT22;4094;49.948;11.574;2022-07-09T03:43:03;18.80;57.80
8103;DHT22;4094;49.948;11.574;2022-07-09T03:45:31;18.80;57.80
8103;DHT22;4094;49.948;11.574;2022-07-09T03:48:01;18.80;57.80
8103;DHT22;4094;49.948;11.574;2022-07-09T03:50:30;18.80;58.00
8103;DHT22;4094;49.948;11.574;2022-07-09T03:53:01;18.80;58.00
8103;DHT22;4094;49.948;11.574;2022-07-09T03:55:30;18.80;58.10
8103;DHT22;4094;49.948;11.574;2022-07-09T03:57:59;18.80;58.10
8103;DHT22;4094;49.948;11.574;2022-07-09T04:00:29;18.80;58.10
8103;DHT22;4094;49.948;11.574;2022-07-09T04:02:59;18.80;58.20
8103;DHT22;4094;49.948;11.574;2022-07-09T04:05:28;18.80;58.10
8103;DHT22;4094;49.948;11.574;2022-07-09T04:07:57;18.80;58.00
8103;DHT22;4094;49.948;11.574;2022-07-09T04:10:28;18.80;57.80
8103;DHT22;4094;49.948;11.574;2022-07-09T04:12:57;18.80;57.80
8103;DHT22;4094;49.948;11.574;2022-07-09T04:15:26;18.80;57.80
8103;DHT22;4094;49.948;11.574;2022-07-09T04:17:55;18.80;57.90
8103;DHT22;4094;49.948;11.574;2022-07-09T04:20:24;18.80;58.00
8103;DHT22;4094;49.948;11.574;2022-07-09T04:22:54;18.80;58.30
8103;DHT22;4094;49.948;11.574;2022-07-09T04:25:23;18.80;57.90
8103;DHT22;4094;49.948;11.574;2022-07-09T04:27:53;18.80;58.00
8103;DHT22;4094;49.948;11.574;2022-07-09T04:30:23;18.90;57.90
8103;DHT22;4094;49.948;11.574;2022-07-09T04:32:52;18.90;57.80
8103;DHT22;4094;49.948;11.574;2022-07-09T04:35:21;18.90;57.70
8103;DHT22;4094;49.948;11.574;2022-07-09T04:37:50;18.90;57.70
8103;DHT22;4094;49.948;11.574;2022-07-09T04:40:20;18.90;57.70
8103;DHT22;4094;49.948;11.574;2022-07-09T04:42:49;18.80;57.70
8103;DHT22;4094;49.948;11.574;2022-07-09T04:45:19;18.80;57.80
8103;DHT22;4094;49.948;11.574;2022-07-09T04:47:48;18.80;57.80
8103;DHT22;4094;49.948;11.574;2022-07-09T04:50:18;18.90;58.00
8103;DHT22;4094;49.948;11.574;2022-07-09T04:52:47;18.90;57.90
8103;DHT22;4094;49.948;11.574;2022-07-09T04:55:16;18.90;58.00
8103;DHT22;4094;49.948;11.574;2022-07-09T04:57:45;18.90;58.00
8103;DHT22;4094;49.948;11.574;2022-07-09T05:00:14;18.90;58.20
8103;DHT22;4094;49.948;11.574;2022-07-09T05:02:46;18.90;58.30
8103;DHT22;4094;49.948;11.574;2022-07-09T05:05:15;18.90;58.50
8103;DHT22;4094;49.948;11.574;2022-07-09T05:07:44;19.00;58.70
8103;DHT22;4094;49.948;11.574;2022-07-09T05:10:13;18.90;58.60
8103;DHT22;4094;49.948;11.574;2022-07-09T05:12:42;19.00;58.60
8103;DHT22;4094;49.948;11.574;2022-07-09T05:15:12;19.00;58.60
8103;DHT22;4094;49.948;11.574;2022-07-09T05:17:41;19.00;58.70
8103;DHT22;4094;49.948;11.574;2022-07-09T05:20:13;19.00;58.70
8103;DHT22;4094;49.948;11.574;2022-07-09T05:22:42;19.00;58.80
8103;DHT22;4094;49.948;11.574;2022-07-09T05:25:11;19.00;58.90
8103;DHT22;4094;49.948;11.574;2022-07-09T05:27:44;19.10;58.90
8103;DHT22;4094;49.948;11.574;2022-07-09T05:30:14;19.10;58.90
8103;DHT22;4094;49.948;11.574;2022-07-09T05:32:47;19.10;58.90
8103;DHT22;4094;49.948;11.574;2022-07-09T05:35:17;19.10;58.90
8103;DHT22;4094;49.948;11.574;2022-07-09T05:37:47;19.10;58.90
8103;DHT22;4094;49.948;11.574;2022-07-09T05:40:16;19.10;59.00
8103;DHT22;4094;49.948;11.574;2022-07-09T05:42:45;19.20;59.10
8103;DHT22;4094;49.948;11.574;2022-07-09T05:45:14;19.20;59.30
8103;DHT22;4094;49.948;11.574;2022-07-09T05:47:43;19.30;59.10
8103;DHT22;4094;49.948;11.574;2022-07-09T05:50:13;19.30;59.00
8103;DHT22;4094;49.948;11.574;2022-07-09T05:52:43;19.30;59.00
8103;DHT22;4094;49.948;11.574;2022-07-09T05:55:14;19.30;59.60
8103;DHT22;4094;49.948;11.574;2022-07-09T05:57:44;19.30;59.90
8103;DHT22;4094;49.948;11.574;2022-07-09T06:00:14;19.30;59.30
8103;DHT22;4094;49.948;11.574;2022-07-09T06:02:44;19.40;59.20
8103;DHT22;4094;49.948;11.574;2022-07-09T06:05:13;19.40;59.30
8103;DHT22;4094;49.948;11.574;2022-07-09T06:07:43;19.50;59.00
8103;DHT22;4094;49.948;11.574;2022-07-09T06:10:13;19.50;59.00
8103;DHT22;4094;49.948;11.574;2022-07-09T06:12:45;19.60;58.90
8103;DHT22;4094;49.948;11.574;2022-07-09T06:15:14;19.60;58.80
8103;DHT22;4094;49.948;11.574;2022-07-09T06:17:43;19.70;58.90
8103;DHT22;4094;49.948;11.574;2022-07-09T06:20:12;19.70;58.70
8103;DHT22;4094;49.948;11.574;2022-07-09T06:22:43;19.70;58.70
8103;DHT22;4094;49.948;11.574;2022-07-09T06:25:12;19.80;58.70
8103;DHT22;4094;49.948;11.574;2022-07-09T06:27:41;19.90;58.60
8103;DHT22;4094;49.948;11.574;2022-07-09T06:30:11;19.90;58.60
8103;DHT22;4094;49.948;11.574;2022-07-09T06:32:40;19.90;58.50
8103;DHT22;4094;49.948;11.574;2022-07-09T06:35:10;20.00;58.40
8103;DHT22;4094;49.948;11.574;2022-07-09T06:37:39;20.00;58.40
8103;DHT22;4094;49.948;11.574;2022-07-09T06:40:11;20.10;58.60
8103;DHT22;4094;49.948;11.574;2022-07-09T06:42:41;20.10;58.60
8103;DHT22;4094;49.948;11.574;2022-07-09T06:45:19;20.20;58.60
8103;DHT22;4094;49.948;11.574;2022-07-09T06:47:48;20.30;58.70
8103;DHT22;4094;49.948;11.574;2022-07-09T06:50:18;20.30;58.30
8103;DHT22;4094;49.948;11.574;2022-07-09T06:52:47;20.40;58.20
8103;DHT22;4094;49.948;11.574;2022-07-09T06:55:17;20.50;58.20
8103;DHT22;4094;49.948;11.574;2022-07-09T06:57:47;20.60;58.20
8103;DHT22;4094;49.948;11.574;2022-07-09T07:00:16;20.60;58.00
8103;DHT22;4094;49.948;11.574;2022-07-09T07:02:45;20.70;57.80
8103;DHT22;4094;49.948;11.574;2022-07-09T07:05:15;20.70;58.00
8103;DHT22;4094;49.948;11.574;2022-07-09T07:07:45;20.90;57.90
8103;DHT22;4094;49.948;11.574;2022-07-09T07:10:14;21.00;57.70
8103;DHT22;4094;49.948;11.574;2022-07-09T07:12:46;21.00;57.50
8103;DHT22;4094;49.948;11.574;2022-07-09T07:15:15;21.10;57.50
8103;DHT22;4094;49.948;11.574;2022-07-09T07:17:44;21.20;57.90
8103;DHT22;4094;49.948;11.574;2022-07-09T07:20:14;21.20;57.30
8103;DHT22;4094;49.948;11.574;2022-07-09T07:22:45;21.40;57.50
8103;DHT22;4094;49.948;11.574;2022-07-09T07:25:14;21.40;57.40
8103;DHT22;4094;49.948;11.574;2022-07-09T07:27:43;21.50;57.50
8103;DHT22;4094;49.948;11.574;2022-07-09T07:30:14;21.60;57.60
8103;DHT22;4094;49.948;11.574;2022-07-09T07:32:44;21.80;57.60
8103;DHT22;4094;49.948;11.574;2022-07-09T07:35:13;21.90;57.50
8103;DHT22;4094;49.948;11.574;2022-07-09T07:37:42;22.00;57.10
8103;DHT22;4094;49.948;11.574;2022-07-09T07:40:12;22.10;57.10
8103;DHT22;4094;49.948;11.574;2022-07-09T07:42:41;22.20;56.90
8103;DHT22;4094;49.948;11.574;2022-07-09T07:45:11;22.20;56.90
8103;DHT22;4094;49.948;11.574;2022-07-09T07:47:41;22.30;57.10
8103;DHT22;4094;49.948;11.574;2022-07-09T07:50:10;22.40;57.00
8103;DHT22;4094;49.948;11.574;2022-07-09T07:52:40;22.50;57.00
8103;DHT22;4094;49.948;11.574;2022-07-09T07:55:14;22.60;56.50
8103;DHT22;4094;49.948;11.574;2022-07-09T07:57:44;22.70;56.00
8103;DHT22;4094;49.948;11.574;2022-07-09T08:00:13;22.70;55.90
8103;DHT22;4094;49.948;11.574;2022-07-09T08:02:46;22.80;56.00
8103;DHT22;4094;49.948;11.574;2022-07-09T08:05:15;22.80;55.60
8103;DHT22;4094;49.948;11.574;2022-07-09T08:07:44;22.90;55.80
8103;DHT22;4094;49.948;11.574;2022-07-09T08:10:13;22.90;55.90
8103;DHT22;4094;49.948;11.574;2022-07-09T08:12:42;23.10;56.00
8103;DHT22;4094;49.948;11.574;2022-07-09T08:15:13;23.10;55.60
8103;DHT22;4094;49.948;11.574;2022-07-09T08:17:42;23.20;55.40
8103;DHT22;4094;49.948;11.574;2022-07-09T08:20:13;23.30;55.40
8103;DHT22;4094;49.948;11.574;2022-07-09T08:22:42;23.30;55.30
8103;DHT22;4094;49.948;11.574;2022-07-09T08:25:12;23.40;55.10
8103;DHT22;4094;49.948;11.574;2022-07-09T08:27:41;23.40;54.70
8103;DHT22;4094;49.948;11.574;2022-07-09T08:30:12;23.50;54.10
8103;DHT22;4094;49.948;11.574;2022-07-09T08:32:41;23.40;53.90
8103;DHT22;4094;49.948;11.574;2022-07-09T08:35:13;23.40;53.80
8103;DHT22;4094;49.948;11.574;2022-07-09T08:37:42;23.40;53.60
8103;DHT22;4094;49.948;11.574;2022-07-09T08:40:12;23.40;53.10
8103;DHT22;4094;49.948;11.574;2022-07-09T08:42:42;23.40;52.90
8103;DHT22;4094;49.948;11.574;2022-07-09T08:45:11;23.40;53.40
8103;DHT22;4094;49.948;11.574;2022-07-09T08:47:42;23.40;53.50
8103;DHT22;4094;49.948;11.574;2022-07-09T08:50:13;23.50;53.10
8103;DHT22;4094;49.948;11.574;2022-07-09T08:52:43;23.50;52.90
8103;DHT22;4094;49.948;11.574;2022-07-09T08:55:13;23.50;52.70
8103;DHT22;4094;49.948;11.574;2022-07-09T08:57:42;23.60;52.90
8103;DHT22;4094;49.948;11.574;2022-07-09T09:00:12;23.50;52.80
8103;DHT22;4094;49.948;11.574;2022-07-09T09:02:41;23.60;53.00
8103;DHT22;4094;49.948;11.574;2022-07-09T09:05:13;23.60;53.00
8103;DHT22;4094;49.948;11.574;2022-07-09T09:07:43;23.60;53.10
8103;DHT22;4094;49.948;11.574;2022-07-09T09:10:22;23.60;52.70
8103;DHT22;4094;49.948;11.574;2022-07-09T09:12:56;23.60;53.00
8103;DHT22;4094;49.948;11.574;2022-07-09T09:15:25;23.50;53.20
8103;DHT22;4094;49.948;11.574;2022-07-09T09:17:56;23.60;53.20
8103;DHT22;4094;49.948;11.574;2022-07-09T09:20:26;23.60;53.10
8103;DHT22;4094;49.948;11.574;2022-07-09T09:22:55;23.60;52.80
8103;DHT22;4094;49.948;11.574;2022-07-09T09:25:30;23.60;52.80
8103;DHT22;4094;49.948;11.574;2022-07-09T09:27:59;23.60;52.80
8103;DHT22;4094;49.948;11.574;2022-07-09T09:30:30;23.60;52.50
8103;DHT22;4094;49.948;11.574;2022-07-09T09:33:00;23.50;52.50
8103;DHT22;4094;49.948;11.574;2022-07-09T09:35:33;23.50;52.60
8103;DHT22;4094;49.948;11.574;2022-07-09T09:38:03;23.50;52.10
8103;DHT22;4094;49.948;11.574;2022-07-09T09:40:32;23.50;52.40
8103;DHT22;4094;49.948;11.574;2022-07-09T09:43:03;23.50;52.10
8103;DHT22;4094;49.948;11.574;2022-07-09T09:45:33;23.40;52.10
8103;DHT22;4094;49.948;11.574;2022-07-09T09:48:05;23.40;52.70
8103;DHT22;4094;49.948;11.574;2022-07-09T09:50:36;23.40;52.20
8103;DHT22;4094;49.948;11.574;2022-07-09T09:53:08;23.30;52.20
8103;DHT22;4094;49.948;11.574;2022-07-09T09:55:38;23.30;52.50
8103;DHT22;4094;49.948;11.574;2022-07-09T09:58:09;23.20;52.60
8103;DHT22;4094;49.948;11.574;2022-07-09T10:00:39;23.20;52.70
8103;DHT22;4094;49.948;11.574;2022-07-09T10:03:10;23.20;52.80
8103;DHT22;4094;49.948;11.574;2022-07-09T10:05:41;23.20;52.80
8103;DHT22;4094;49.948;11.574;2022-07-09T10:08:11;23.20;53.00
8103;DHT22;4094;49.948;11.574;2022-07-09T10:10:49;23.20;53.10
8103;DHT22;4094;49.948;11.574;2022-07-09T10:13:21;23.20;53.30
8103;DHT22;4094;49.948;11.574;2022-07-09T10:15:50;23.20;53.30
8103;DHT22;4094;49.948;11.574;2022-07-09T10:18:19;23.20;53.00
8103;DHT22;4094;49.948;11.574;2022-07-09T10:20:55;23.20;53.10
8103;DHT22;4094;49.948;11.574;2022-07-09T10:23:24;23.20;53.10
8103;DHT22;4094;49.948;11.574;2022-07-09T10:25:54;23.20;53.10
8103;DHT22;4094;49.948;11.574;2022-07-09T10:28:24;23.20;53.10
8103;DHT22;4094;49.948;11.574;2022-07-09T10:30:54;23.10;53.00
8103;DHT22;4094;49.948;11.574;2022-07-09T10:33:33;23.10;53.10
8103;DHT22;4094;49.948;11.574;2022-07-09T10:36:13;23.10;53.10
8103;DHT22;4094;49.948;11.574;2022-07-09T10:38:53;23.10;53.10
8103;DHT22;4094;49.948;11.574;2022-07-09T10:41:23;23.10;53.20
8103;DHT22;4094;49.948;11.574;2022-07-09T10:43:53;23.00;53.20
8103;DHT22;4094;49.948;11.574;2022-07-09T10:46:22;23.00;53.20
8103;DHT22;4094;49.948;11.574;2022-07-09T10:48:51;23.00;53.30
8103;DHT22;4094;49.948;11.574;2022-07-09T10:51:23;23.00;53.50
8103;DHT22;4094;49.948;11.574;2022-07-09T10:53:52;22.90;53.20
8103;DHT22;4094;49.948;11.574;2022-07-09T10:56:22;22.90;53.40
8103;DHT22;4094;49.948;11.574;2022-07-09T10:58:52;22.90;53.30
8103;DHT22;4094;49.948;11.574;2022-07-09T11:01:23;22.90;53.30
8103;DHT22;4094;49.948;11.574;2022-07-09T11:03:53;23.00;53.50
8103;DHT22;4094;49.948;11.574;2022-07-09T11:06:24;23.00;54.10
8103;DHT22;4094;49.948;11.574;2022-07-09T11:08:53;23.00;53.60
8103;DHT22;4094;49.948;11.574;2022-07-09T11:11:22;23.00;53.30
8103;DHT22;4094;49.948;11.574;2022-07-09T11:13:51;23.00;53.30
8103;DHT22;4094;49.948;11.574;2022-07-09T11:16:23;23.00;53.50
8103;DHT22;4094;49.948;11.574;2022-07-09T11:18:53;23.00;53.50
8103;DHT22;4094;49.948;11.574;2022-07-09T11:21:25;23.10;53.60
8103;DHT22;4094;49.948;11.574;2022-07-09T11:23:55;23.10;53.50
8103;DHT22;4094;49.948;11.574;2022-07-09T11:26:24;23.10;53.40
8103;DHT22;4094;49.948;11.574;2022-07-09T11:28:53;23.10;53.50
8103;DHT22;4094;49.948;11.574;2022-07-09T11:31:22;23.10;53.40
8103;DHT22;4094;49.948;11.574;2022-07-09T11:33:52;23.20;53.30
8103;DHT22;4094;49.948;11.574;2022-07-09T11:36:42;23.20;53.20
8103;DHT22;4094;49.948;11.574;2022-07-09T11:39:22;23.20;53.20
8103;DHT22;4094;49.948;11.574;2022-07-09T11:41:52;23.30;53.20
8103;DHT22;4094;49.948;11.574;2022-07-09T11:44:23;23.30;53.20
8103;DHT22;4094;49.948;11.574;2022-07-09T11:47:06;23.30;53.10
8103;DHT22;4094;49.948;11.574;2022-07-09T11:49:38;23.40;53.10
8103;DHT22;4094;49.948;11.574;2022-07-09T11:52:20;23.40;53.20
8103;DHT22;4094;49.948;11.574;2022-07-09T11:54:57;23.40;52.90
8103;DHT22;4094;49.948;11.574;2022-07-09T11:57:27;23.40;53.00
8103;DHT22;4094;49.948;11.574;2022-07-09T11:59:57;23.40;53.10
8103;DHT22;4094;49.948;11.574;2022-07-09T12:02:29;23.30;53.10
8103;DHT22;4094;49.948;11.574;2022-07-09T12:04:59;23.30;52.90
8103;DHT22;4094;49.948;11.574;2022-07-09T12:07:30;23.30;53.10
8103;DHT22;4094;49.948;11.574;2022-07-09T12:10:02;23.30;53.60
8103;DHT22;4094;49.948;11.574;2022-07-09T12:12:33;23.20;53.10
8103;DHT22;4094;49.948;11.574;2022-07-09T12:15:04;23.20;53.30
8103;DHT22;4094;49.948;11.574;2022-07-09T12:17:35;23.10;53.40
8103;DHT22;4094;49.948;11.574;2022-07-09T12:20:07;23.00;53.60
8103;DHT22;4094;49.948;11.574;2022-07-09T12:22:39;23.00;53.80
8103;DHT22;4094;49.948;11.574;2022-07-09T12:25:09;22.90;53.90
8103;DHT22;4094;49.948;11.574;2022-07-09T12:27:38;22.90;54.10
8103;DHT22;4094;49.948;11.574;2022-07-09T12:30:08;22.90;54.20
8103;DHT22;4094;49.948;11.574;2022-07-09T12:32:37;22.80;54.20
8103;DHT22;4094;49.948;11.574;2022-07-09T12:35:08;22.80;54.30
8103;DHT22;4094;49.948;11.574;2022-07-09T12:37:39;22.80;54.20
8103;DHT22;4094;49.948;11.574;2022-07-09T12:40:09;22.90;54.30
8103;DHT22;4094;49.948;11.574;2022-07-09T12:42:39;22.90;54.20
8103;DHT22;4094;49.948;11.574;2022-07-09T12:45:09;23.00;54.10
8103;DHT22;4094;49.948;11.574;2022-07-09T12:47:40;23.10;53.90
8103;DHT22;4094;49.948;11.574;2022-07-09T12:50:10;23.10;53.40
8103;DHT22;4094;49.948;11.574;2022-07-09T12:52:41;23.10;53.20
8103;DHT22;4094;49.948;11.574;2022-07-09T12:55:10;23.20;52.90
8103;DHT22;4094;49.948;11.574;2022-07-09T12:57:39;23.20;53.00
8103;DHT22;4094;49.948;11.574;2022-07-09T13:00:09;23.20;53.20
8103;DHT22;4094;49.948;11.574;2022-07-09T13:02:38;23.30;53.10
8103;DHT22;4094;49.948;11.574;2022-07-09T13:05:08;23.30;53.00
8103;DHT22;4094;49.948;11.574;2022-07-09T13:07:37;23.50;53.30
8103;DHT22;4094;49.948;11.574;2022-07-09T13:10:08;23.50;53.30
8103;DHT22;4094;49.948;11.574;2022-07-09T13:12:38;23.70;53.00
8103;DHT22;4094;49.948;11.574;2022-07-09T13:15:08;23.70;52.90
8103;DHT22;4094;49.948;11.574;2022-07-09T13:17:37;23.80;52.30
8103;DHT22;4094;49.948;11.574;2022-07-09T13:20:08;23.90;52.20
8103;DHT22;4094;49.948;11.574;2022-07-09T13:22:37;24.00;52.00
8103;DHT22;4094;49.948;11.574;2022-07-09T13:25:08;24.10;51.80
8103;DHT22;4094;49.948;11.574;2022-07-09T13:27:38;24.10;51.50
8103;DHT22;4094;49.948;11.574;2022-07-09T13:30:07;24.20;51.30
8103;DHT22;4094;49.948;11.574;2022-07-09T13:32:37;24.20;51.20
8103;DHT22;4094;49.948;11.574;2022-07-09T13:35:07;24.20;51.10
8103;DHT22;4094;49.948;11.574;2022-07-09T13:37:36;24.20;51.10
8103;DHT22;4094;49.948;11.574;2022-07-09T13:40:06;24.20;51.30
8103;DHT22;4094;49.948;11.574;2022-07-09T13:42:36;24.10;51.30
8103;DHT22;4094;49.948;11.574;2022-07-09T13:45:06;24.20;51.10
8103;DHT22;4094;49.948;11.574;2022-07-09T13:47:35;24.10;50.90
8103;DHT22;4094;49.948;11.574;2022-07-09T13:50:06;24.10;50.70
8103;DHT22;4094;49.948;11.574;2022-07-09T13:52:35;24.10;50.60
8103;DHT22;4094;49.948;11.574;2022-07-09T13:55:05;24.10;50.40
8103;DHT22;4094;49.948;11.574;2022-07-09T13:57:35;24.10;50.50
8103;DHT22;4094;49.948;11.574;2022-07-09T14:00:06;24.10;50.60
8103;DHT22;4094;49.948;11.574;2022-07-09T14:02:36;24.10;50.50
8103;DHT22;4094;49.948;11.574;2022-07-09T14:05:05;24.10;50.50
8103;DHT22;4094;49.948;11.574;2022-07-09T14:07:36;24.10;50.10
8103;DHT22;4094;49.948;11.574;2022-07-09T14:10:05;24.10;50.30
8103;DHT22;4094;49.948;11.574;2022-07-09T14:12:36;24.10;50.20
8103;DHT22;4094;49.948;11.574;2022-07-09T14:15:06;24.20;50.20
8103;DHT22;4094;49.948;11.574;2022-07-09T14:17:36;24.20;50.10
8103;DHT22;4094;49.948;11.574;2022-07-09T14:20:06;24.20;50.30
8103;DHT22;4094;49.948;11.574;2022-07-09T14:22:36;24.20;49.70
8103;DHT22;4094;49.948;11.574;2022-07-09T14:25:06;24.20;49.70
8103;DHT22;4094;49.948;11.574;2022-07-09T14:27:36;24.20;49.80
8103;DHT22;4094;49.948;11.574;2022-07-09T14:30:07;24.20;49.70
8103;DHT22;4094;49.948;11.574;2022-07-09T14:32:36;24.20;48.90
8103;DHT22;4094;49.948;11.574;2022-07-09T14:35:06;24.10;48.90
8103;DHT22;4094;49.948;11.574;2022-07-09T14:37:35;24.10;48.60
8103;DHT22;4094;49.948;11.574;2022-07-09T14:40:06;24.10;48.80
8103;DHT22;4094;49.948;11.574;2022-07-09T14:42:37;24.10;48.60
8103;DHT22;4094;49.948;11.574;2022-07-09T14:45:08;24.10;48.90
8103;DHT22;4094;49.948;11.574;2022-07-09T14:47:38;24.10;49.10
8103;DHT22;4094;49.948;11.574;2022-07-09T14:50:08;24.10;48.80
8103;DHT22;4094;49.948;11.574;2022-07-09T14:52:37;24.10;48.60
8103;DHT22;4094;49.948;11.574;2022-07-09T14:55:07;24.10;48.80
8103;DHT22;4094;49.948;11.574;2022-07-09T14:57:38;24.10;48.90
8103;DHT22;4094;49.948;11.574;2022-07-09T15:00:08;24.10;48.80
8103;DHT22;4094;49.948;11.574;2022-07-09T15:02:37;24.10;48.40
8103;DHT22;4094;49.948;11.574;2022-07-09T15:05:06;24.10;48.50
8103;DHT22;4094;49.948;11.574;2022-07-09T15:07:36;24.10;48.50
8103;DHT22;4094;49.948;11.574;2022-07-09T15:10:06;24.20;49.30
8103;DHT22;4094;49.948;11.574;2022-07-09T15:12:35;24.20;48.60
8103;DHT22;4094;49.948;11.574;2022-07-09T15:15:07;24.20;48.50
8103;DHT22;4094;49.948;11.574;2022-07-09T15:17:36;24.20;48.90
8103;DHT22;4094;49.948;11.574;2022-07-09T15:20:11;24.20;48.50
8103;DHT22;4094;49.948;11.574;2022-07-09T15:22:40;24.20;48.40
8103;DHT22;4094;49.948;11.574;2022-07-09T15:25:09;24.30;48.50
8103;DHT22;4094;49.948;11.574;2022-07-09T15:27:38;24.30;48.20
8103;DHT22;4094;49.948;11.574;2022-07-09T15:30:10;24.20;47.90
8103;DHT22;4094;49.948;11.574;2022-07-09T15:32:39;24.20;48.10
8103;DHT22;4094;49.948;11.574;2022-07-09T15:35:08;24.20;48.20
8103;DHT22;4094;49.948;11.574;2022-07-09T15:37:40;24.20;48.10
8103;DHT22;4094;49.948;11.574;2022-07-09T15:40:10;24.20;48.20
8103;DHT22;4094;49.948;11.574;2022-07-09T15:42:41;24.20;48.30
8103;DHT22;4094;49.948;11.574;2022-07-09T15:45:13;24.20;48.20
8103;DHT22;4094;49.948;11.574;2022-07-09T15:47:42;24.10;48.10
8103;DHT22;4094;49.948;11.574;2022-07-09T15:50:19;24.10;48.40
8103;DHT22;4094;49.948;11.574;2022-07-09T15:52:48;24.10;48.60
8103;DHT22;4094;49.948;11.574;2022-07-09T15:55:17;24.10;48.90
8103;DHT22;4094;49.948;11.574;2022-07-09T15:57:46;24.10;49.30
8103;DHT22;4094;49.948;11.574;2022-07-09T16:00:17;24.00;49.80
8103;DHT22;4094;49.948;11.574;2022-07-09T16:02:51;23.90;52.20